Nearby METAR Reports

 

EGMC - Southend-On-Sea, United Kingdom
Distance from station: NE 10km
Updated: 19/06/2018 05:50
Mostly cloudy
Mostly cloudy
 Wind from W
Wind: W 7 mph , 11 km/h
Temperature: 18°C
Dew Point: 15°C
Humidity: 83%
Barometer: 1021 hPa
Clouds: Mostly cloudy
Visibility: 6 miles , 10 km
Cloud details: Few Clouds 457 m
Mostly cloudy 671 m
2018/06/19 04:50 EGMC 190450Z 28006KT 250V320 9999 FEW015 BKN022 18/15 Q1021
EGLC - London City Airp, United Kingdom
Distance from station: W 37km
Updated: 19/06/2018 05:50
Overcast
Overcast
 Wind from W
Wind: W 12 mph , 19 km/h
Temperature: 19°C
Dew Point: 14°C
Humidity: 73%
Barometer: 1022 hPa
Clouds: Overcast
Visibility: 6 miles , 10 km
Cloud details: Mostly cloudy 549 m
Overcast 671 m
2018/06/19 04:50 EGLC 190450Z AUTO 26010KT 9999 BKN018 OVC022 19/14 Q1022
EGKB - Biggin Hill, United Kingdom
Distance from station: WSW 45km
Updated: 18/06/2018 22:20
NOT Current
Mostly cloudy
Mostly cloudy
 Wind from SSW
Wind: SSW 13 mph , 20 km/h
Temperature: 16°C
Dew Point: 14°C
Humidity: 88%
Barometer: 1021 hPa
Clouds: Mostly cloudy
Visibility: 6 miles , 10 km
Cloud details: Mostly cloudy 884 m
2018/06/18 21:20 EGKB 182120Z 21011KT 9999 BKN029 16/14 Q1021
 
EGSS - Stansted Airport, United Kingdom
Distance from station: NNW 48km
Updated: 19/06/2018 05:50
Overcast
Overcast
 Wind from W
Wind: W 8 mph , 13 km/h
Temperature: 17°C
Dew Point: 14°C
Humidity: 83%
Barometer: 1022 hPa
Clouds: Overcast
Visibility: 6 miles , 10 km
Cloud details: Overcast 488 m
2018/06/19 04:50 EGSS 190450Z AUTO 26007KT 220V290 9999 OVC016 17/14 Q1022
EGKK - London/Gatwick A, United Kingdom
Distance from station: SW 67km
Updated: 19/06/2018 05:50
Mostly cloudy
Mostly cloudy
 Wind from SW
Wind: SW 5 mph , 7 km/h
Temperature: 17°C
Dew Point: 16°C
Humidity: 94%
Barometer: 1022 hPa
Clouds: Mostly cloudy
Visibility: 6 miles , 10 km
Cloud details: Mostly cloudy 335 m
2018/06/19 04:50 EGKK 190450Z 23004KT 9999 BKN011 17/16 Q1022
EGMD - Lydd Airport, United Kingdom
Distance from station: SSE 67km
Updated: 19/06/2018 05:50
Mostly cloudy
Mostly cloudy
 Wind from SW
Wind: SW 16 mph , 26 km/h
Temperature: 16°C
Dew Point: 15°C
Humidity: 94%
Barometer: 1023 hPa
Clouds: Mostly cloudy
Visibility: 6 miles , 10 km
Cloud details: Few Clouds 91 m
Mostly cloudy 640 m
2018/06/19 04:50 EGMD 190450Z AUTO 23014KT 9999 FEW003/// BKN021/// 16/15 Q1023
 
EGWU - Northolt Raf, United Kingdom
Distance from station: W 69km
Updated: 19/06/2018 04:50
Overcast
Overcast
 Wind from WNW
Wind: WNW 13 mph , 20 km/h
Temperature: 17°C
Dew Point: 14°C
Humidity: 83%
Barometer: 1022 hPa
Clouds: Overcast
Visibility: 6 miles , 10 km
Cloud details: Overcast 427 m
2018/06/19 03:50 EGWU 190350Z AUTO 29011KT 9999 // OVC014/// 17/14 Q1022
EGLL - London/Heathrow, United Kingdom
Distance from station: W 72km
Updated: 19/06/2018 05:50
Overcast
Overcast
 Wind from W
Wind: W 14 mph , 22 km/h
Temperature: 17°C
Dew Point: 14°C
Humidity: 83%
Barometer: 1022 hPa
Clouds: Overcast
Visibility: 6 miles , 10 km
Cloud details: Mostly cloudy 457 m
Overcast 701 m
2018/06/19 04:50 EGLL 190450Z AUTO 27012KT 9999 BKN015 OVC023 17/14 Q1022 TEMPO BKN014
EGUW - Wattisham Raf, United Kingdom
Distance from station: NNE 72km
Updated: 19/06/2018 04:50
Overcast
Overcast
 Wind from W
Wind: W 10 mph , 17 km/h
Temperature: 17°C
Dew Point: 14°C
Humidity: 83%
Barometer: 1020 hPa
Clouds: Overcast
Visibility: 6 miles , 10 km
Cloud details: Overcast 579 m
2018/06/19 03:50 EGUW 190350Z AUTO 27009KT 9999 OVC019/// 17/14 Q1020
 
EGGW - Luton Airport, United Kingdom
Distance from station: WNW 76km
Updated: 19/06/2018 05:50
Overcast
Overcast
 Wind from WSW
Wind: WSW 12 mph , 19 km/h
Temperature: 16°C
Dew Point: 14°C
Humidity: 88%
Barometer: 1022 hPa
Clouds: Overcast
Visibility: 6 miles , 10 km
Cloud details: Overcast 427 m
2018/06/19 04:50 EGGW 190450Z AUTO 25010KT 9999 OVC014 16/14 Q1022
EGSC - Cambridge, United Kingdom
Distance from station: NNW 81km
Updated: 18/06/2018 17:50
NOT Current
Few Clouds
Few Clouds
 Wind from WSW
Wind: WSW 16 mph , 26 km/h
Temperature: 23°C
Dew Point: 13°C
Humidity: 53%
Barometer: 1017 hPa
Clouds: Few Clouds
Visibility: 6 miles , 10 km
Cloud details: Few Clouds 1219 m
2018/06/18 16:50 EGSC 181650Z 25014KT 9999 FEW040 23/13 Q1017